createdAt,value
2019-03-27T00:00:04.068Z,24.68
2019-03-27T00:02:14.890Z,24.70
2019-03-27T00:04:24.621Z,24.67
2019-03-27T00:06:35.449Z,24.54
2019-03-27T00:08:49.644Z,24.63
2019-03-27T00:10:57.362Z,24.61
2019-03-27T00:13:09.327Z,24.65
2019-03-27T00:15:16.573Z,24.74
2019-03-27T00:17:28.538Z,24.67
2019-03-27T00:19:37.582Z,24.58
2019-03-27T00:21:48.872Z,24.59
2019-03-27T00:23:59.856Z,24.55
2019-03-27T00:26:07.316Z,24.60
2019-03-27T00:28:15.480Z,24.50
2019-03-27T00:30:26.089Z,24.48
2019-03-27T00:32:34.082Z,24.63
2019-03-27T00:34:42.042Z,24.58
2019-03-27T00:36:49.906Z,24.66
2019-03-27T00:38:57.806Z,24.59
2019-03-27T00:41:05.886Z,24.18
2019-03-27T00:43:13.935Z,23.37
2019-03-27T00:45:27.020Z,22.56
2019-03-27T00:47:32.451Z,22.91
2019-03-27T00:49:40.346Z,22.99
2019-03-27T00:51:52.133Z,23.03
2019-03-27T00:53:59.880Z,23.06
2019-03-27T00:56:08.822Z,23.13
2019-03-27T00:58:16.468Z,23.18
2019-03-27T01:00:35.218Z,23.25
2019-03-27T01:02:46.050Z,23.30
2019-03-27T01:04:55.045Z,23.36
2019-03-27T01:07:04.575Z,23.41
2019-03-27T01:09:19.445Z,23.46
2019-03-27T01:11:32.732Z,23.51
2019-03-27T01:13:42.694Z,23.57
2019-03-27T01:15:52.937Z,23.62
2019-03-27T01:18:04.977Z,23.64
2019-03-27T01:20:12.934Z,23.68
2019-03-27T01:22:21.339Z,23.67
2019-03-27T01:24:29.781Z,23.66
2019-03-27T01:26:41.219Z,23.66
2019-03-27T01:28:50.253Z,23.64
2019-03-27T01:30:59.591Z,23.64
2019-03-27T01:33:08.550Z,23.64
2019-03-27T01:35:17.045Z,23.61
2019-03-27T01:37:25.115Z,23.59
2019-03-27T01:39:32.759Z,23.53
2019-03-27T01:41:41.325Z,23.60
2019-03-27T01:43:49.848Z,23.58
2019-03-27T01:46:00.757Z,23.54
2019-03-27T01:48:17.332Z,23.57
2019-03-27T01:50:39.666Z,23.66
2019-03-27T01:52:49.846Z,23.63
2019-03-27T01:54:58.270Z,23.54
2019-03-27T01:57:08.854Z,23.59
2019-03-27T01:59:16.957Z,23.58
2019-03-27T02:01:32.262Z,23.55
2019-03-27T02:03:42.708Z,23.54
2019-03-27T02:05:51.236Z,23.75
2019-03-27T02:10:28.489Z,23.85
2019-03-27T02:12:51.197Z,23.86
2019-03-27T02:15:11.322Z,23.78
2019-03-27T02:17:20.973Z,23.83
2019-03-27T02:19:28.853Z,23.77
2019-03-27T02:21:41.506Z,23.73
2019-03-27T02:23:50.547Z,23.71
2019-03-27T02:26:05.307Z,23.61
2019-03-27T02:28:13.317Z,23.63
2019-03-27T02:30:23.018Z,23.58
2019-03-27T02:32:30.792Z,23.55
2019-03-27T02:34:41.820Z,23.53
2019-03-27T02:36:52.440Z,23.45
2019-03-27T02:39:00.205Z,23.44
2019-03-27T02:41:11.011Z,23.41
2019-03-27T02:43:18.693Z,23.35
2019-03-27T02:45:26.948Z,23.39
2019-03-27T02:47:39.402Z,23.42
2019-03-27T02:49:58.422Z,23.37
2019-03-27T02:52:07.879Z,23.40
2019-03-27T02:54:17.145Z,23.43
2019-03-27T02:56:25.778Z,23.41
2019-03-27T02:58:34.946Z,23.43
2019-03-27T03:00:43.372Z,23.40
2019-03-27T03:02:52.788Z,23.28
2019-03-27T03:05:00.613Z,23.20
2019-03-27T03:07:09.154Z,23.18
2019-03-27T03:09:17.708Z,23.13
2019-03-27T03:11:26.888Z,23.09
2019-03-27T03:13:35.546Z,23.04
2019-03-27T03:15:44.244Z,23.02
2019-03-27T03:17:52.012Z,23.06
2019-03-27T03:20:00.585Z,23.14
2019-03-27T03:22:10.204Z,23.13
2019-03-27T03:24:18.003Z,23.12
2019-03-27T03:26:25.839Z,23.08
2019-03-27T03:28:34.331Z,23.07
2019-03-27T03:30:43.594Z,23.03
2019-03-27T03:32:51.166Z,23.06
2019-03-27T03:34:58.949Z,22.99
2019-03-27T03:37:08.463Z,23.03
2019-03-27T03:39:16.379Z,22.93
2019-03-27T03:41:24.882Z,23.00
2019-03-27T03:43:33.068Z,22.96
2019-03-27T03:45:42.177Z,22.97
2019-03-27T03:47:50.720Z,22.94
2019-03-27T03:49:58.451Z,22.93
2019-03-27T03:52:07.432Z,22.89
2019-03-27T03:54:15.283Z,22.85
2019-03-27T03:56:44.642Z,22.84
2019-03-27T03:58:54.278Z,22.82
2019-03-27T04:01:05.007Z,22.84
2019-03-27T04:03:13.988Z,22.72
2019-03-27T04:05:23.897Z,22.73
2019-03-27T04:07:32.387Z,22.77
2019-03-27T04:09:40.166Z,22.93
2019-03-27T04:11:47.810Z,23.09
2019-03-27T04:13:56.236Z,23.28
2019-03-27T04:16:06.354Z,23.47
2019-03-27T04:18:14.942Z,23.50
2019-03-27T04:20:23.549Z,23.49
2019-03-27T04:22:31.798Z,23.42
2019-03-27T04:24:40.416Z,23.31
2019-03-27T04:26:49.157Z,23.28
2019-03-27T04:28:57.530Z,23.23
2019-03-27T04:31:05.102Z,23.20
2019-03-27T04:33:13.913Z,23.15
2019-03-27T04:35:21.480Z,23.06
2019-03-27T04:37:29.125Z,23.01
2019-03-27T04:39:38.439Z,22.95
2019-03-27T04:41:47.312Z,22.93
2019-03-27T04:43:56.629Z,22.87
2019-03-27T04:46:04.929Z,22.85
2019-03-27T04:48:12.604Z,22.79
2019-03-27T04:50:20.254Z,22.76
2019-03-27T04:52:28.176Z,22.72
2019-03-27T04:54:42.449Z,22.69
2019-03-27T04:56:51.471Z,22.66
2019-03-27T04:58:59.181Z,22.64
2019-03-27T05:01:07.013Z,22.62
2019-03-27T05:03:17.608Z,22.52
2019-03-27T05:05:26.212Z,22.47
2019-03-27T05:07:34.517Z,22.50
2019-03-27T05:09:42.304Z,22.60
2019-03-27T05:11:51.725Z,22.69
2019-03-27T05:13:59.679Z,22.90
2019-03-27T05:16:08.061Z,23.03
2019-03-27T05:18:16.372Z,23.23
2019-03-27T05:20:24.664Z,23.41
2019-03-27T05:22:34.468Z,23.51
2019-03-27T05:24:42.950Z,23.44
2019-03-27T05:26:52.952Z,23.34
2019-03-27T05:29:01.258Z,23.29
2019-03-27T05:31:09.962Z,23.20
2019-03-27T05:33:18.546Z,23.14
2019-03-27T05:35:26.536Z,23.05
2019-03-27T05:37:36.058Z,22.94
2019-03-27T05:39:46.358Z,22.88
2019-03-27T05:41:56.442Z,22.80
2019-03-27T05:44:05.825Z,22.77
2019-03-27T05:46:16.065Z,22.71
2019-03-27T05:48:28.566Z,22.67
2019-03-27T05:50:48.933Z,22.64
2019-03-27T05:52:57.016Z,22.60
2019-03-27T05:55:07.624Z,22.59
2019-03-27T05:57:17.030Z,22.55
2019-03-27T05:59:29.545Z,22.51
2019-03-27T06:01:39.255Z,22.49
2019-03-27T06:03:46.955Z,22.50
2019-03-27T06:05:58.734Z,22.52
2019-03-27T06:08:15.621Z,22.63
2019-03-27T06:10:25.198Z,22.83
2019-03-27T06:12:35.573Z,22.97
2019-03-27T06:14:43.385Z,23.14
2019-03-27T06:16:51.486Z,23.23
2019-03-27T06:18:59.223Z,23.34
2019-03-27T06:21:07.541Z,23.26
2019-03-27T06:23:15.356Z,23.18
2019-03-27T06:25:23.199Z,23.14
2019-03-27T06:27:33.933Z,23.05
2019-03-27T06:29:46.704Z,22.96
2019-03-27T06:31:56.812Z,22.91
2019-03-27T06:34:05.861Z,22.78
2019-03-27T06:36:14.453Z,22.73
2019-03-27T06:38:22.876Z,22.70
2019-03-27T06:40:31.520Z,22.63
2019-03-27T06:42:44.198Z,22.60
2019-03-27T06:44:54.629Z,22.59
2019-03-27T06:47:02.944Z,22.53
2019-03-27T06:49:46.398Z,22.47
2019-03-27T06:51:56.965Z,22.46
2019-03-27T06:54:04.917Z,22.38
2019-03-27T06:56:13.606Z,22.32
2019-03-27T06:58:21.237Z,22.45
2019-03-27T07:00:38.802Z,22.56
2019-03-27T07:02:47.905Z,22.74
2019-03-27T07:04:55.573Z,22.91
2019-03-27T07:07:03.892Z,23.03
2019-03-27T07:09:12.307Z,23.19
2019-03-27T07:11:20.349Z,23.20
2019-03-27T07:13:29.180Z,23.13
2019-03-27T07:15:37.553Z,23.06
2019-03-27T07:17:45.517Z,23.00
2019-03-27T07:19:53.343Z,22.95
2019-03-27T07:22:00.936Z,22.88
2019-03-27T07:24:09.816Z,22.58
2019-03-27T07:26:18.559Z,22.75
2019-03-27T07:28:26.346Z,22.64
2019-03-27T07:30:34.037Z,22.58
2019-03-27T07:32:41.940Z,22.54
2019-03-27T07:34:49.790Z,22.29
2019-03-27T07:36:58.346Z,22.49
2019-03-27T07:39:11.204Z,22.44
2019-03-27T07:41:16.444Z,22.41
2019-03-27T07:43:24.759Z,22.40
2019-03-27T07:45:33.011Z,22.33
2019-03-27T07:48:04.863Z,22.31
2019-03-27T07:50:16.370Z,22.34
2019-03-27T07:52:32.845Z,22.46
2019-03-27T07:54:40.438Z,22.66
2019-03-27T07:56:49.032Z,22.78
2019-03-27T07:58:59.807Z,22.91
2019-03-27T08:01:08.518Z,23.06
2019-03-27T08:03:16.557Z,23.14
2019-03-27T08:05:24.433Z,23.24
2019-03-27T08:07:32.614Z,23.32
2019-03-27T08:09:40.244Z,23.29
2019-03-27T08:11:50.288Z,23.21
2019-03-27T08:13:58.259Z,23.13
2019-03-27T08:16:07.222Z,23.07
2019-03-27T08:18:18.190Z,23.01
2019-03-27T08:20:32.216Z,22.93
2019-03-27T08:22:42.950Z,22.86
2019-03-27T08:24:51.283Z,22.80
2019-03-27T08:27:01.576Z,22.75
2019-03-27T08:29:09.362Z,22.64
2019-03-27T08:31:19.311Z,22.60
2019-03-27T08:33:28.800Z,22.52
2019-03-27T08:35:37.329Z,22.50
2019-03-27T08:37:45.256Z,22.44
2019-03-27T08:39:54.025Z,22.39
2019-03-27T08:42:01.750Z,22.35
2019-03-27T08:44:10.292Z,22.29
2019-03-27T08:46:18.801Z,22.27
2019-03-27T08:48:26.709Z,22.28
2019-03-27T08:50:37.540Z,22.27
2019-03-27T08:52:50.910Z,22.24
2019-03-27T08:54:59.317Z,22.34
2019-03-27T08:57:07.719Z,22.54
2019-03-27T08:59:16.485Z,22.71
2019-03-27T09:01:25.184Z,22.88
2019-03-27T09:03:33.129Z,23.03
2019-03-27T09:05:42.045Z,23.18
2019-03-27T09:07:49.991Z,23.17
2019-03-27T09:09:59.546Z,23.12
2019-03-27T09:12:21.811Z,23.05
2019-03-27T09:14:32.316Z,22.98
2019-03-27T09:16:40.237Z,22.93
2019-03-27T09:18:49.364Z,22.86
2019-03-27T09:20:57.322Z,22.78
2019-03-27T09:23:05.302Z,22.72
2019-03-27T09:25:13.366Z,22.64
2019-03-27T09:27:23.798Z,22.56
2019-03-27T09:29:34.191Z,22.51
2019-03-27T09:31:46.447Z,22.48
2019-03-27T09:33:54.905Z,22.42
2019-03-27T09:36:03.377Z,22.36
2019-03-27T09:38:11.525Z,22.32
2019-03-27T09:40:19.485Z,22.41
2019-03-27T09:42:27.297Z,22.50
2019-03-27T09:44:35.400Z,22.67
2019-03-27T09:46:42.902Z,22.83
2019-03-27T09:48:52.916Z,22.96
2019-03-27T09:51:01.073Z,23.02
2019-03-27T09:53:08.850Z,23.15
2019-03-27T09:55:17.849Z,23.12
2019-03-27T09:57:25.811Z,23.08
2019-03-27T09:59:34.133Z,22.96
2019-03-27T10:01:41.850Z,22.92
2019-03-27T10:03:49.646Z,22.90
2019-03-27T10:05:57.463Z,22.83
2019-03-27T10:08:05.411Z,22.80
2019-03-27T10:10:13.228Z,22.73
2019-03-27T10:12:20.998Z,22.64
2019-03-27T10:14:29.653Z,22.59
2019-03-27T10:16:37.550Z,22.52
2019-03-27T10:18:48.393Z,22.47
2019-03-27T10:20:56.901Z,22.40
2019-03-27T10:23:06.296Z,22.37
2019-03-27T10:25:14.188Z,22.33
2019-03-27T10:27:22.723Z,22.27
2019-03-27T10:29:30.659Z,22.23
2019-03-27T10:31:39.364Z,22.17
2019-03-27T10:33:47.701Z,22.19
2019-03-27T10:35:56.509Z,22.21
2019-03-27T10:38:04.782Z,22.35
2019-03-27T10:40:13.649Z,22.49
2019-03-27T10:42:22.371Z,22.70
2019-03-27T10:44:31.293Z,22.90
2019-03-27T10:46:39.117Z,23.08
2019-03-27T10:48:52.870Z,23.07
2019-03-27T10:50:58.786Z,23.04
2019-03-27T10:53:06.617Z,22.98
2019-03-27T10:55:14.459Z,22.87
2019-03-27T10:57:23.341Z,22.85
2019-03-27T10:59:31.803Z,22.76
2019-03-27T11:01:40.153Z,22.71
2019-03-27T11:03:48.332Z,22.70
2019-03-27T11:05:56.189Z,22.69
2019-03-27T11:08:03.944Z,22.80
2019-03-27T11:10:12.393Z,22.95
2019-03-27T11:12:20.034Z,23.11
2019-03-27T11:14:38.263Z,23.29
2019-03-27T11:16:43.446Z,23.47
2019-03-27T11:18:51.840Z,23.54
2019-03-27T11:20:59.550Z,23.58
2019-03-27T11:23:09.099Z,23.51
2019-03-27T11:25:17.630Z,23.44
2019-03-27T11:27:26.596Z,23.36
2019-03-27T11:29:35.451Z,23.25
2019-03-27T11:31:45.166Z,23.16
2019-03-27T11:33:54.430Z,23.04
2019-03-27T11:36:03.407Z,23.06
2019-03-27T11:38:12.075Z,23.05
2019-03-27T11:40:19.787Z,23.21
2019-03-27T11:42:30.680Z,23.33
2019-03-27T11:44:39.335Z,23.45
2019-03-27T11:46:47.467Z,23.54
2019-03-27T11:48:55.345Z,23.65
2019-03-27T11:51:03.336Z,23.81
2019-03-27T11:53:12.357Z,23.81
2019-03-27T11:55:20.326Z,23.90
2019-03-27T11:57:28.622Z,23.94
2019-03-27T11:59:36.339Z,23.98
2019-03-27T12:01:44.193Z,24.10
2019-03-27T12:03:51.959Z,24.32
2019-03-27T12:05:59.757Z,24.47
2019-03-27T12:08:08.979Z,24.52
2019-03-27T12:10:17.492Z,24.69
2019-03-27T12:12:27.737Z,24.82
2019-03-27T12:14:36.398Z,24.89
2019-03-27T12:16:43.962Z,24.98
2019-03-27T12:18:51.615Z,25.08
2019-03-27T12:21:00.358Z,25.01
2019-03-27T12:23:09.221Z,25.09
2019-03-27T12:25:19.388Z,25.05
2019-03-27T12:27:27.198Z,25.13
2019-03-27T12:29:35.602Z,25.09
2019-03-27T12:31:45.365Z,24.97
2019-03-27T12:33:53.845Z,24.75
2019-03-27T12:36:02.385Z,24.58
2019-03-27T12:38:10.983Z,24.59
2019-03-27T12:40:19.150Z,24.47
2019-03-27T12:42:27.298Z,24.32
2019-03-27T12:44:37.926Z,24.21
2019-03-27T12:46:52.769Z,24.20
2019-03-27T12:49:04.891Z,24.21
2019-03-27T12:51:13.482Z,24.27
2019-03-27T12:53:21.406Z,24.41
2019-03-27T12:55:30.284Z,24.50
2019-03-27T12:57:39.981Z,24.63
2019-03-27T12:59:52.845Z,24.75
2019-03-27T13:02:07.234Z,24.92
2019-03-27T13:04:16.683Z,25.13
2019-03-27T13:06:24.954Z,25.23
2019-03-27T13:08:33.055Z,25.19
2019-03-27T13:10:41.935Z,25.19
2019-03-27T13:12:49.286Z,25.17
2019-03-27T13:14:56.715Z,25.11
2019-03-27T13:17:05.687Z,24.97
2019-03-27T13:19:14.143Z,24.83
2019-03-27T13:21:26.574Z,24.84
2019-03-27T13:23:36.883Z,24.83
2019-03-27T13:25:44.691Z,24.74
2019-03-27T13:27:52.569Z,24.69
2019-03-27T13:30:01.114Z,24.62
2019-03-27T13:32:09.123Z,24.58
2019-03-27T13:34:17.075Z,24.56
2019-03-27T13:36:28.766Z,24.56
2019-03-27T13:38:37.710Z,24.49
2019-03-27T13:40:46.376Z,24.56
2019-03-27T13:42:54.066Z,24.68
2019-03-27T13:45:01.943Z,24.83
2019-03-27T13:47:10.711Z,24.94
2019-03-27T13:49:19.264Z,25.11
2019-03-27T13:51:39.771Z,25.19
2019-03-27T13:53:36.407Z,25.27
2019-03-27T13:55:44.785Z,25.41
2019-03-27T13:57:54.898Z,25.42
2019-03-27T14:00:05.309Z,25.50
2019-03-27T14:02:20.794Z,25.45
2019-03-27T14:04:30.284Z,25.46
2019-03-27T14:06:38.251Z,25.44
2019-03-27T14:08:46.771Z,25.40
2019-03-27T14:10:54.679Z,25.37
2019-03-27T14:13:05.555Z,25.34
2019-03-27T14:15:14.133Z,25.34
2019-03-27T14:17:22.446Z,25.30
2019-03-27T14:19:30.850Z,25.20
2019-03-27T14:21:53.560Z,25.12
2019-03-27T14:23:52.111Z,25.08
2019-03-27T14:26:06.365Z,25.04
2019-03-27T14:28:15.526Z,24.98
2019-03-27T14:30:53.683Z,24.97
2019-03-27T14:33:02.253Z,24.98
2019-03-27T14:35:10.415Z,24.94
2019-03-27T14:37:19.166Z,24.91
2019-03-27T14:39:30.204Z,24.90
2019-03-27T14:41:38.757Z,24.88
2019-03-27T14:43:46.668Z,24.91
2019-03-27T14:45:55.660Z,24.90
2019-03-27T14:48:04.091Z,24.83
2019-03-27T14:50:14.833Z,24.83
2019-03-27T14:52:25.051Z,24.78
2019-03-27T14:54:35.074Z,24.78
2019-03-27T14:56:46.801Z,24.78
2019-03-27T14:58:56.787Z,24.72
2019-03-27T15:01:06.495Z,24.71
2019-03-27T15:03:14.373Z,24.77
2019-03-27T15:05:23.219Z,24.90
2019-03-27T15:07:30.971Z,25.04
2019-03-27T15:09:38.910Z,25.21
2019-03-27T15:11:49.820Z,25.31
2019-03-27T15:13:57.793Z,25.47
2019-03-27T15:16:05.808Z,25.62
2019-03-27T15:18:13.442Z,25.70
2019-03-27T15:20:21.111Z,25.70
2019-03-27T15:22:28.779Z,25.72
2019-03-27T15:24:36.871Z,25.66
2019-03-27T15:26:45.109Z,25.68
2019-03-27T15:28:53.013Z,25.60
2019-03-27T15:31:00.690Z,25.57
2019-03-27T15:33:20.698Z,25.56
2019-03-27T15:35:28.500Z,25.57
2019-03-27T15:37:36.509Z,25.55
2019-03-27T15:39:44.400Z,25.52
2019-03-27T15:41:52.079Z,25.48
2019-03-27T15:43:59.978Z,25.44
2019-03-27T15:46:07.951Z,25.45
2019-03-27T15:48:22.036Z,25.45
2019-03-27T15:50:31.437Z,25.39
2019-03-27T15:52:39.815Z,25.39
2019-03-27T15:54:47.409Z,25.33
2019-03-27T15:56:56.872Z,25.30
2019-03-27T15:59:04.593Z,25.17
2019-03-27T16:01:14.354Z,25.17
2019-03-27T16:03:23.580Z,25.15
2019-03-27T16:05:31.365Z,25.12
2019-03-27T16:07:39.137Z,25.10
2019-03-27T16:09:47.307Z,25.09
2019-03-27T16:11:55.804Z,25.06
2019-03-27T16:14:05.046Z,25.03
2019-03-27T16:16:14.915Z,25.02
2019-03-27T16:18:22.682Z,25.00
2019-03-27T16:20:32.070Z,24.98
2019-03-27T16:22:50.008Z,24.99
2019-03-27T16:27:20.506Z,24.96
2019-03-27T16:29:28.616Z,24.99
2019-03-27T16:31:40.548Z,25.01
2019-03-27T16:33:48.363Z,25.01
2019-03-27T16:35:56.839Z,25.03
2019-03-27T16:38:05.687Z,25.05
2019-03-27T16:40:13.658Z,25.02
2019-03-27T16:42:21.970Z,25.01
2019-03-27T16:44:30.535Z,25.02
2019-03-27T16:46:41.274Z,24.98
2019-03-27T16:48:50.637Z,24.98
2019-03-27T16:50:58.281Z,25.01
2019-03-27T16:53:06.543Z,25.04
2019-03-27T16:55:14.312Z,25.08
2019-03-27T16:57:22.224Z,25.05
2019-03-27T17:02:02.142Z,24.98
2019-03-27T17:04:10.839Z,25.04
2019-03-27T17:06:29.989Z,25.02
2019-03-27T17:10:58.113Z,25.27
2019-03-27T17:13:06.126Z,25.40
2019-03-27T17:15:15.497Z,25.51
2019-03-27T17:17:24.950Z,25.69
2019-03-27T17:19:32.625Z,25.84
2019-03-27T17:21:40.333Z,26.00
2019-03-27T17:23:48.083Z,26.09
2019-03-27T17:25:56.855Z,26.10
2019-03-27T17:28:05.188Z,26.09
2019-03-27T17:30:13.718Z,26.12
2019-03-27T17:32:22.218Z,26.08
2019-03-27T17:34:29.969Z,26.02
2019-03-27T17:36:37.840Z,25.94
2019-03-27T17:38:46.283Z,25.81
2019-03-27T17:40:54.092Z,25.78
2019-03-27T17:43:01.778Z,25.72
2019-03-27T17:45:11.359Z,25.69
2019-03-27T17:47:19.105Z,25.66
2019-03-27T17:49:27.045Z,25.67
2019-03-27T17:51:35.556Z,25.67
2019-03-27T17:53:44.840Z,25.65
2019-03-27T17:55:53.367Z,25.68
2019-03-27T17:58:01.754Z,25.63
2019-03-27T18:00:12.351Z,25.66
2019-03-27T18:02:20.116Z,25.66
2019-03-27T18:04:27.807Z,25.59
2019-03-27T18:06:36.976Z,25.61
2019-03-27T18:08:45.806Z,25.62
2019-03-27T18:10:54.334Z,25.64
2019-03-27T18:13:01.917Z,25.64
2019-03-27T18:15:10.367Z,25.62
2019-03-27T18:17:23.276Z,25.66
2019-03-27T18:19:33.672Z,25.63
2019-03-27T18:21:42.048Z,25.59
2019-03-27T18:23:51.132Z,25.55
2019-03-27T18:25:59.608Z,25.54
2019-03-27T18:28:08.244Z,25.62
2019-03-27T18:30:16.824Z,25.57
2019-03-27T18:32:25.188Z,25.60
2019-03-27T18:34:33.244Z,25.64
2019-03-27T18:36:41.797Z,25.62
2019-03-27T18:38:50.927Z,25.62
2019-03-27T18:40:59.683Z,25.66
2019-03-27T18:43:07.292Z,25.64
2019-03-27T18:45:15.794Z,25.63
2019-03-27T18:47:24.409Z,25.58
2019-03-27T18:49:32.164Z,25.62
2019-03-27T18:51:39.887Z,25.61
2019-03-27T18:53:58.870Z,25.61
2019-03-27T18:55:56.790Z,25.66
2019-03-27T18:58:04.654Z,25.63
2019-03-27T19:00:13.226Z,25.66
2019-03-27T19:02:21.204Z,25.65
2019-03-27T19:04:29.030Z,25.66
2019-03-27T19:06:37.018Z,25.73
2019-03-27T19:08:45.155Z,25.73
2019-03-27T19:11:03.774Z,25.73
2019-03-27T19:13:07.810Z,25.77
2019-03-27T19:15:16.407Z,25.73
2019-03-27T19:17:24.966Z,25.78
2019-03-27T19:19:32.957Z,25.79
2019-03-27T19:21:41.498Z,25.75
2019-03-27T19:26:23.447Z,25.77
2019-03-27T19:28:31.975Z,25.76
2019-03-27T19:30:39.822Z,25.76
2019-03-27T19:32:48.023Z,25.74
2019-03-27T19:34:57.164Z,25.71
2019-03-27T19:37:05.875Z,25.69
2019-03-27T19:39:13.847Z,25.67
2019-03-27T19:41:22.569Z,25.72
2019-03-27T19:43:32.158Z,25.75
2019-03-27T19:45:40.888Z,25.72
2019-03-27T19:47:48.799Z,25.70
2019-03-27T19:49:56.408Z,25.73
2019-03-27T19:52:04.177Z,25.78
2019-03-27T19:54:12.094Z,25.75
2019-03-27T19:56:19.908Z,25.72
2019-03-27T19:58:28.449Z,25.61
2019-03-27T20:00:37.673Z,25.71
2019-03-27T20:02:46.107Z,25.80
2019-03-27T20:04:54.708Z,25.88
2019-03-27T20:07:03.503Z,25.92
2019-03-27T20:09:12.175Z,25.92
2019-03-27T20:11:20.289Z,25.93
2019-03-27T20:13:29.256Z,25.94
2019-03-27T20:15:37.008Z,25.90
2019-03-27T20:17:46.016Z,25.94
2019-03-27T20:19:54.837Z,25.88
2019-03-27T20:22:04.107Z,25.81
2019-03-27T20:24:12.004Z,25.82
2019-03-27T20:26:20.840Z,25.85
2019-03-27T20:28:29.375Z,25.83
2019-03-27T20:30:40.389Z,25.83
2019-03-27T20:32:53.890Z,25.87
2019-03-27T20:35:02.028Z,25.88
2019-03-27T20:37:10.874Z,25.93
2019-03-27T20:39:18.620Z,25.90
2019-03-27T20:41:27.294Z,25.92
2019-03-27T20:43:35.779Z,25.89
2019-03-27T20:45:43.678Z,25.76
2019-03-27T20:47:51.792Z,25.77
2019-03-27T20:50:00.552Z,25.73
2019-03-27T20:52:09.566Z,25.83
2019-03-27T20:54:17.658Z,25.83
2019-03-27T20:56:25.571Z,25.80
2019-03-27T20:58:34.227Z,25.78
2019-03-27T21:00:43.810Z,25.68
2019-03-27T21:02:55.400Z,25.73
2019-03-27T21:05:05.239Z,25.63
2019-03-27T21:07:13.203Z,25.56
2019-03-27T21:09:22.189Z,25.53
2019-03-27T21:11:29.823Z,25.52
2019-03-27T21:13:41.214Z,25.54
2019-03-27T21:15:48.189Z,25.48
2019-03-27T21:17:56.063Z,25.46
2019-03-27T21:20:04.461Z,25.47
2019-03-27T21:22:12.062Z,25.31
2019-03-27T21:24:20.677Z,25.20
2019-03-27T21:26:30.220Z,25.10
2019-03-27T21:28:39.249Z,24.97
2019-03-27T21:30:47.212Z,24.84
2019-03-27T21:32:57.124Z,24.68
2019-03-27T21:35:06.559Z,24.69
2019-03-27T21:37:14.294Z,24.53
2019-03-27T21:39:25.705Z,24.34
2019-03-27T21:41:33.612Z,24.36
2019-03-27T21:43:43.543Z,24.35
2019-03-27T21:45:51.844Z,24.32
2019-03-27T21:48:05.648Z,24.17
2019-03-27T21:50:18.908Z,24.19
2019-03-27T21:52:26.894Z,24.52
2019-03-27T21:54:38.586Z,24.62
2019-03-27T21:56:48.769Z,24.53
2019-03-27T21:59:02.283Z,24.58
2019-03-27T22:01:11.591Z,24.84
2019-03-27T22:03:19.488Z,25.11
2019-03-27T22:05:55.688Z,25.12
2019-03-27T22:08:07.821Z,25.30
2019-03-27T22:10:23.882Z,24.99
2019-03-27T22:12:33.867Z,24.87
2019-03-27T22:14:46.729Z,24.75
2019-03-27T22:16:57.910Z,24.69
2019-03-27T22:19:06.606Z,24.50
2019-03-27T22:21:16.333Z,24.45
2019-03-27T22:23:24.729Z,24.55
2019-03-27T22:25:36.275Z,24.60
2019-03-27T22:27:42.750Z,24.56
2019-03-27T22:29:51.377Z,24.66
2019-03-27T22:31:59.088Z,24.74
2019-03-27T22:34:07.528Z,24.72
2019-03-27T22:36:17.983Z,24.69
2019-03-27T22:38:25.711Z,24.77
2019-03-27T22:40:33.394Z,24.70
2019-03-27T22:42:44.051Z,24.67
2019-03-27T22:44:53.262Z,24.72
2019-03-27T22:47:05.494Z,24.69
2019-03-27T22:49:17.137Z,24.65
2019-03-27T22:51:27.639Z,24.62
2019-03-27T22:53:37.074Z,24.63
2019-03-27T22:55:49.991Z,24.59
2019-03-27T22:57:56.027Z,24.59
2019-03-27T23:00:05.101Z,24.75
2019-03-27T23:02:12.915Z,24.72
2019-03-27T23:04:20.637Z,24.88
2019-03-27T23:06:28.232Z,24.86
2019-03-27T23:08:36.836Z,24.84
2019-03-27T23:10:46.649Z,24.86
2019-03-27T23:12:54.379Z,24.87
2019-03-27T23:15:02.089Z,24.89
2019-03-27T23:17:10.121Z,24.87
2019-03-27T23:19:21.946Z,24.78
2019-03-27T23:21:32.414Z,24.71
2019-03-27T23:23:40.946Z,24.74
2019-03-27T23:26:02.165Z,24.93
2019-03-27T23:28:00.926Z,24.91
2019-03-27T23:30:10.988Z,24.85
2019-03-27T23:32:23.680Z,24.87
2019-03-27T23:34:31.456Z,24.77
2019-03-27T23:36:39.435Z,24.79
2019-03-27T23:38:49.122Z,24.85
2019-03-27T23:40:57.519Z,24.86
2019-03-27T23:43:05.724Z,24.87
